Terminal Aerodrome Forecast
Issued by NWS

Home | Current Version | Previous Version | Text Only | Print | Product List | Glossary On
Versions: 1 2 3 4 5 6 7 8 9 10 11 12 13 14
000
FTUS45 KABQ 270537
TAFSAF
TAF
KSAF 270537Z 2706/2806 15008KT P6SM VCTS BKN100CB
     FM271600 13011KT P6SM SCT060
     FM272000 14012KT P6SM VCSH BKN060
     FM280000 13016KT P6SM -SHRA OVC040=

USA.gov is the U.S. government's official web portal to all federal, state and local government web resources and services.